Latest Weather Observations for Point Avoid

IDS60801

Issued at 11:01 am CDT Monday 26 February 2024 (issued every 10 minutes, with the page automatically refreshed every 10 minutes)

About weather observations | Map of weather stations | Latest weather observations for SA | Other Formats
Station Details ID: 018230 Name: POINT AVOID Lat: -34.67 Lon: 135.34 Height: 35.0 m
Data from the previous 72 hours. | See also: Recent months at Point Avoid
Date/Time
CDT
Temp
°C
App
Temp
°C
Dew
Point
°C
Rel
Hum
%
Delta-T
°C
Wind Press
QNH
hPa
Press
MSL
hPa
Rain since
9am
mm
Dir  Spd
km/h
Gust
km/h
Spd
kts
Gust
kts
26/11:00am 18.1 15.9 14.4 79 2.1 SE 19 26 10 14 1018.0 1017.9 0.0
26/10:30am 17.9 16.2 14.6 81 1.9 SE 17 24 9 13 1018.3 1018.2 0.0
26/10:00am 17.1 15.4 14.6 85 1.4 ESE 17 22 9 12 1018.0 1017.9 0.0
26/09:30am 16.3 14.8 14.3 88 1.1 ESE 15 20 8 11 1018.1 1018.0 0.0
26/09:00am 16.0 14.6 14.5 91 0.9 SE 15 19 8 10 1017.9 1017.8 0.0
26/08:30am 15.8 14.1 14.7 93 0.6 SE 17 24 9 13 1017.6 1017.5 0.0
26/08:00am 15.4 14.4 14.6 95 0.5 SE 13 19 7 10 1017.6 1017.5 0.0
26/07:30am 14.4 13.1 13.6 95 0.4 SE 13 15 7 8 1017.2 1017.1 0.0
26/07:00am 14.6 13.3 13.8 95 0.4 ESE 13 17 7 9 1017.2 1017.1 0.0
26/06:30am 14.4 13.4 13.4 94 0.6 ESE 11 15 6 8 1016.9 1016.8 0.0
26/06:00am 15.0 12.7 14.0 94 0.6 SE 19 22 10 12 1016.6 1016.5 0.0
26/05:30am 14.9 12.5 13.9 94 0.6 SE 19 24 10 13 1016.5 1016.4 0.0
26/05:00am 14.3 13.3 13.5 95 0.4 ESE 11 17 6 9 1016.6 1016.5 0.0
26/04:30am 14.4 13.0 13.4 94 0.6 SE 13 15 7 8 1016.7 1016.6 0.0
26/04:00am 14.8 12.4 13.8 94 0.6 SE 19 22 10 12 1016.8 1016.7 0.0
26/03:30am 14.8 12.4 13.7 93 0.6 SE 19 22 10 12 1016.7 1016.6 0.0
26/03:00am 14.8 12.4 13.7 93 0.6 SE 19 24 10 13 1016.7 1016.6 0.0
26/02:30am 15.0 12.6 13.9 93 0.6 SE 19 24 10 13 1016.8 1016.7 0.0
26/02:00am 15.3 12.5 14.2 93 0.6 SE 22 26 12 14 1017.0 1016.9 0.0
26/01:30am 15.4 12.9 14.1 92 0.7 SE 20 26 11 14 1017.2 1017.1 0.0
26/01:00am 15.6 12.4 14.3 92 0.7 SE 24 32 13 17 1017.3 1017.2 0.0
26/12:30am 15.6 12.3 14.1 91 0.8 SE 24 30 13 16 1017.1 1017.0 0.0
26/12:00am 15.5 12.2 13.9 90 0.9 SE 24 30 13 16 1017.1 1017.0 0.0
 
Date/Time
CDT
Temp
°C
App
Temp
°C
Dew
Point
°C
Rel
Hum
%
Delta-T
°C
Wind Press
QNH
hPa
Press
MSL
hPa
Rain since
9am
mm
Dir  Spd
km/h
Gust
km/h
Spd
kts
Gust
kts
25/11:30pm 15.6 12.3 14.1 91 0.8 SE 24 32 13 17 1017.0 1016.9 0.0
25/11:00pm 15.5 12.2 14.0 91 0.8 ESE 24 28 13 15 1017.3 1017.2 0.0
25/10:30pm 15.4 12.5 14.1 92 0.7 ESE 22 28 12 15 1017.2 1017.1 0.0
25/10:00pm 15.4 12.8 13.9 91 0.8 SE 20 24 11 13 1016.8 1016.7 0.0
25/09:30pm 16.1 13.4 14.5 90 0.9 SE 22 26 12 14 1016.9 1016.8 0.0
25/09:00pm 16.1 13.9 14.5 90 0.9 ESE 19 28 10 15 1016.8 1016.7 0.0
25/08:30pm 16.3 13.2 14.5 89 1.0 SE 24 28 13 15 1015.9 1015.8 0.0
25/08:00pm 16.6 13.5 14.6 88 1.1 ESE 24 30 13 16 1016.1 1016.0 0.0
25/07:30pm 16.9 13.9 14.7 87 1.3 ESE 24 30 13 16 1015.7 1015.6 0.0
25/07:00pm 17.3 14.7 14.9 86 1.4 SE 22 28 12 15 1015.5 1015.3 0.0
25/06:30pm 17.7 14.8 15.0 84 1.6 ESE 24 30 13 16 1015.2 1015.0 0.0
25/06:00pm 18.8 15.5 15.1 79 2.2 SE 26 33 14 18 1015.0 1014.8 0.0
25/05:30pm 19.6 16.1 15.5 77 2.4 SE 28 35 15 19 1014.8 1014.6 0.0
25/05:00pm 20.0 17.4 15.8 77 2.5 SE 24 30 13 16 1014.5 1014.3 0.0
25/04:30pm 19.5 16.4 15.6 78 2.3 ESE 26 32 14 17 1014.3 1014.1 0.0
25/04:00pm 20.6 18.5 16.2 76 2.6 ESE 22 28 12 15 1014.5 1014.3 0.0
25/03:30pm 21.2 18.7 16.2 73 3.0 SSE 24 33 13 18 1015.0 1014.8 0.0
25/03:00pm 19.6 17.3 15.7 78 2.3 SE 22 28 12 15 1015.1 1014.9 0.0
25/02:30pm 19.6 17.2 15.5 77 2.4 SE 22 28 12 15 1014.9 1014.7 0.0
25/02:00pm 20.5 18.6 15.7 74 2.9 ESE 20 30 11 16 1014.8 1014.6 0.0
25/01:30pm 21.4 19.3 16.1 72 3.2 SE 22 32 12 17 1014.9 1014.7 0.0
25/01:00pm 21.4 19.2 16.8 75 2.8 ESE 24 30 13 16 1015.3 1015.1 0.0
25/12:30pm 20.5 18.1 16.3 77 2.5 SE 24 30 13 16 1015.8 1015.7 0.0
25/12:00pm 19.8 18.2 16.1 79 2.2 SE 19 24 10 13 1016.0 1015.9 0.0
25/11:30am 20.2 18.7 16.4 79 2.3 SSE 19 24 10 13 1016.1 1016.0 0.0
25/11:00am 20.0 18.8 16.0 78 2.4 ESE 17 22 9 12 1015.7 1015.6 0.0
25/10:30am 19.9 18.9 15.7 77 2.5 ESE 15 19 8 10 1015.2 1015.0 0.0
25/10:00am 20.5 20.7 14.6 69 3.5 SSE 7 9 4 5 1015.2 1015.0 0.0
25/09:30am 20.5 20.5 13.7 65 3.9 ESE 6 6 3 3 1014.9 1014.7 0.0
25/09:00am 19.0 19.5 14.9 77 2.4 SSE 6 6 3 3 1014.7 1014.5 0.0
25/08:30am 15.9 16.1 14.6 92 0.7 SSW 7 9 4 5 1014.2 1014.0 0.0
25/08:00am 15.7 15.5 14.6 93 0.6 ESE 9 11 5 6 1013.3 1013.1 0.0
25/07:30am 14.1 13.7 13.1 94 0.6 ESE 7 9 4 5 1013.6 1013.4 0.0
25/07:00am 13.8 13.3 12.5 92 0.7 E 7 11 4 6 1012.8 1012.6 0.0
25/06:30am 14.6 13.6 13.5 93 0.6 ENE 11 15 6 8 1012.6 1012.4 0.0
25/06:00am 14.8 13.4 13.5 92 0.7 ENE 13 17 7 9 1012.5 1012.3 0.0
25/05:30am 14.3 12.8 13.0 92 0.7 ENE 13 17 7 9 1012.8 1012.6 0.0
25/05:00am 14.0 12.7 12.6 91 0.8 ENE 11 13 6 7 1012.9 1012.7 0.0
25/04:30am 14.4 13.9 12.8 90 0.9 ENE 7 9 4 5 1013.2 1013.0 0.0
25/04:00am 14.7 13.6 13.1 90 0.9 ENE 11 17 6 9 1013.2 1013.0 0.0
25/03:30am 14.7 13.6 13.2 91 0.8 E 11 15 6 8 1013.7 1013.5 0.0
25/03:00am 15.0 13.3 13.5 91 0.8 E 15 22 8 12 1013.7 1013.5 0.0
25/02:30am 14.7 12.2 13.4 92 0.7 ENE 19 24 10 13 1013.9 1013.7 0.0
25/02:00am 13.3 11.1 12.0 92 0.7 E 15 17 8 9 1014.3 1014.1 0.0
25/01:30am 13.3 11.7 11.7 90 0.9 ESE 11 15 6 8 1014.7 1014.5 0.0
25/01:00am 13.8 11.6 12.0 89 1.0 ESE 15 17 8 9 1014.8 1014.6 0.0
25/12:30am 13.5 11.6 11.7 89 1.0 ESE 13 15 7 8 1014.9 1014.7 0.0
25/12:00am 13.2 11.3 11.9 92 0.7 ESE 13 15 7 8 1015.0 1014.8 0.0
 
Date/Time
CDT
Temp
°C
App
Temp
°C
Dew
Point
°C
Rel
Hum
%
Delta-T
°C
Wind Press
QNH
hPa
Press
MSL
hPa
Rain since
9am
mm
Dir  Spd
km/h
Gust
km/h
Spd
kts
Gust
kts
24/11:30pm 13.5 11.3 12.2 92 0.7 SE 15 17 8 9 1015.5 1015.3 0.0
24/11:00pm 13.8 11.7 12.4 91 0.8 SE 15 17 8 9 1015.9 1015.8 0.0
24/10:30pm 14.0 12.3 12.4 90 0.9 SE 13 15 7 8 1015.9 1015.8 0.0
24/10:00pm 14.5 12.1 12.5 88 1.1 SE 17 20 9 11 1015.4 1015.2 0.0
24/09:30pm 14.9 12.2 12.8 87 1.2 SE 19 20 10 11 1015.3 1015.1 0.0
24/09:00pm 15.0 12.2 12.7 86 1.3 SE 19 26 10 14 1015.0 1014.8 0.0
24/08:30pm 15.3 12.9 12.8 85 1.4 ESE 17 22 9 12 1015.0 1014.8 0.0
24/08:00pm 16.4 13.5 12.9 80 1.9 SE 20 26 11 14 1015.1 1014.9 0.0
24/07:30pm 17.3 14.5 12.6 74 2.6 SE 19 26 10 14 1014.8 1014.6 0.0
24/07:00pm 18.2 14.8 12.6 70 3.1 SE 22 32 12 17 1014.9 1014.7 0.0
24/06:30pm 18.7 14.3 12.9 69 3.3 SE 28 33 15 18 1015.1 1014.9 0.0
24/06:00pm 18.9 14.4 12.6 67 3.5 SE 28 35 15 19 1015.1 1014.9 0.0
24/05:30pm 19.4 15.1 13.1 67 3.6 SE 28 37 15 20 1015.2 1015.0 0.0
24/05:00pm 19.6 14.9 13.3 67 3.6 SE 30 37 16 20 1015.3 1015.1 0.0
24/04:30pm 20.0 15.7 13.2 65 3.9 SE 28 35 15 19 1015.5 1015.3 0.0
24/04:00pm 20.8 17.0 13.5 63 4.2 SE 26 35 14 19 1015.8 1015.7 0.0
24/03:30pm 21.5 18.6 12.9 58 4.9 SE 20 28 11 15 1016.3 1016.2 0.0
24/03:00pm 21.7 18.9 13.3 59 4.8 SE 20 30 11 16 1016.9 1016.8 0.0
24/02:30pm 22.4 19.3 13.5 57 5.1 SE 22 32 12 17 1017.3 1017.2 0.0
24/02:00pm 24.6 22.6 10.1 40 8.0 NE 11 17 6 9 1018.1 1018.0 0.0
24/01:30pm 24.1 21.8 10.4 42 7.6 NE 13 24 7 13 1018.3 1018.2 0.0
24/01:00pm 24.2 21.5 10.5 42 7.6 ENE 15 26 8 14 1018.4 1018.3 0.0
24/12:30pm 23.6 20.1 11.0 45 7.0 E 20 35 11 19 1018.5 1018.4 0.0
24/12:00pm 23.2 20.0 11.3 47 6.6 ESE 19 32 10 17 1019.2 1019.1 0.0
24/11:30am 22.7 19.4 10.8 47 6.6 E 19 30 10 16 1019.9 1019.8 0.0
24/11:00am 22.1 18.9 11.2 50 6.1 E 19 32 10 17 1020.1 1020.0 0.0
24/10:30am 20.5 16.8 10.3 52 5.5 E 20 28 11 15 1020.3 1020.2 0.0
24/10:00am 19.6 15.9 10.0 54 5.1 E 20 32 11 17 1020.3 1020.2 0.0
24/09:30am 18.0 16.3 11.1 64 3.7 SE 11 17 6 9 1020.3 1020.2 0.0
24/09:00am 17.6 15.3 10.5 63 3.8 ESE 13 20 7 11 1020.2 1020.1 0.0
24/08:30am 16.8 14.8 10.2 65 3.5 ESE 11 17 6 9 1020.3 1020.2 0.0
24/08:00am 16.6 13.7 9.5 63 3.7 ESE 15 20 8 11 1020.2 1020.1 0.0
24/07:30am 16.2 11.8 8.9 62 3.7 E 22 37 12 20 1020.0 1019.9 0.0
24/07:00am 15.5 13.1 10.1 70 2.8 ESE 13 19 7 10 1019.7 1019.6 0.0
24/06:30am 15.6 12.4 9.9 69 3.0 ESE 17 22 9 12 1019.6 1019.5 0.0
24/06:00am 15.7 12.0 9.6 67 3.2 ESE 19 24 10 13 1019.8 1019.7 0.0
24/05:30am 15.7 12.0 9.6 67 3.2 ESE 19 26 10 14 1019.8 1019.7 0.0
24/05:00am 15.7 12.9 10.0 69 3.0 ESE 15 28 8 15 1020.1 1020.0 0.0
24/04:30am 15.4 13.3 11.0 75 2.3 ESE 13 19 7 10 1020.4 1020.3 0.0
24/04:00am 15.5 13.1 11.3 76 2.3 SE 15 19 8 10 1020.2 1020.1 0.0
24/03:30am 15.6 12.6 10.6 72 2.6 SE 17 22 9 12 1020.7 1020.6 0.0
24/03:00am 15.6 13.0 10.6 72 2.6 SE 15 19 8 10 1020.8 1020.7 0.0
24/02:30am 15.9 12.0 9.3 65 3.4 SE 20 28 11 15 1021.1 1021.0 0.0
24/02:00am 15.6 12.5 10.4 71 2.7 SE 17 24 9 13 1021.6 1021.5 0.0
24/01:30am 15.9 12.1 9.8 67 3.2 SE 20 32 11 17 1021.8 1021.7 0.0
24/01:00am 16.0 12.2 9.9 67 3.2 SE 20 24 11 13 1022.0 1021.9 0.0
24/12:30am 15.9 12.5 10.4 70 2.9 SE 19 26 10 14 1022.1 1022.0 0.0
24/12:00am 15.7 11.5 9.8 68 3.1 SE 22 28 12 15 1021.8 1021.7 0.0
 
Date/Time
CDT
Temp
°C
App
Temp
°C
Dew
Point
°C
Rel
Hum
%
Delta-T
°C
Wind Press
QNH
hPa
Press
MSL
hPa
Rain since
9am
mm
Dir  Spd
km/h
Gust
km/h
Spd
kts
Gust
kts
23/11:30pm 16.1 13.0 11.5 74 2.5 SE 19 24 10 13 1022.0 1021.9 0.0
23/11:00pm 15.9 12.5 10.4 70 2.9 SE 19 24 10 13 1022.4 1022.3 0.0
23/10:30pm 16.3 13.0 11.7 74 2.5 SE 20 28 11 15 1022.0 1021.9 0.0
23/10:00pm 16.3 12.4 10.8 70 2.9 SE 22 30 12 16 1021.7 1021.6 0.0
23/09:30pm 16.4 12.5 10.9 70 2.9 SE 22 32 12 17 1021.6 1021.5 0.0
23/09:00pm 16.2 13.2 12.0 76 2.3 SE 19 26 10 14 1021.4 1021.3 0.0
23/08:30pm 16.2 12.3 10.7 70 2.9 SE 22 28 12 15 1020.9 1020.8 0.0
23/08:00pm 16.6 13.5 12.2 75 2.4 SE 20 26 11 14 1020.6 1020.5 0.0
23/07:30pm 16.8 13.2 11.7 72 2.8 ESE 22 28 12 15 1020.6 1020.5 0.0
23/07:00pm 17.1 13.9 12.0 72 2.8 ESE 20 26 11 14 1020.5 1020.4 0.0
23/06:30pm 17.9 13.9 11.9 68 3.3 SE 24 30 13 16 1020.3 1020.2 0.0
23/06:00pm 18.4 14.3 11.5 64 3.8 SE 24 30 13 16 1020.1 1020.0 0.0
23/05:30pm 19.7 16.4 12.7 64 3.9 SE 22 30 12 16 1020.1 1020.0 0.0
23/05:00pm 19.4 16.4 11.9 62 4.2 ESE 19 26 10 14 1020.0 1019.9 0.0
23/04:30pm 18.3 15.9 12.5 69 3.2 SSE 17 22 9 12 1020.0 1019.9 0.0
23/04:00pm 19.1 16.5 12.1 64 3.9 SSE 17 24 9 13 1020.1 1020.0 0.0
23/03:30pm 18.9 15.5 12.4 66 3.6 SE 22 28 12 15 1020.3 1020.2 0.0
23/03:00pm 19.8 16.1 12.6 63 4.0 SE 24 30 13 16 1020.4 1020.3 0.0
23/02:30pm 20.4 16.3 12.6 61 4.4 SSE 26 33 14 18 1020.5 1020.4 0.0
23/02:00pm 19.9 15.5 10.3 54 5.2 SE 24 30 13 16 1020.6 1020.5 0.0
23/01:30pm 20.0 15.7 10.7 55 5.0 SE 24 30 13 16 1020.6 1020.5 0.0
23/01:00pm 21.1 17.2 10.9 52 5.6 SSE 22 30 12 16 1020.6 1020.5 0.0
23/12:30pm 19.8 15.3 11.3 58 4.7 S 26 35 14 19 1020.9 1020.8 0.0
23/12:00pm 19.1 16.0 11.7 62 4.1 S 19 24 10 13 1021.0 1020.9 0.0
23/11:30am 18.5 14.5 10.3 59 4.4 S 22 28 12 15 1021.1 1021.0 0.0

Other formats

Comma delimited format used in spreadsheet applications
http://www.bom.gov.au/fwo/IDS60801/IDS60801.95649.axf

JavaScript Object Notation format (JSON) in row-major order
http://www.bom.gov.au/fwo/IDS60801/IDS60801.95649.json

Data quality

Most of these data are generated automatically and are frequently updated. Quality checks on data are not normally performed. It is possible for incorrect values to appear. Refer to information at About Latest Weather Observations and please check the disclaimer before using these data.